Beech Croft, New York
Current Conditions -  °F | °C
As of 9:53 AM on Saturday 25 Oct 2014 (Local Time) from KFRG Reporting Station
Clear Clear  
Wind Chill: 55°   Ceiling: Unl
Heat Index: 55°   Visibility: 10mi
Dew Point: 41°   Wind: 9mph
Humidity: 59%   Direction: 300°WNW
Pressure: 29.84"   Gusts: NA
Location:  40.8966°N, 73.4362°W
Report Text: KFRG 251353Z 30008KT 10SM CLR 13/05 A2984 RMK AO2 SLP105 T01280050
Loading
Personal Weather Stations






























Interactive Weather Map
Tropical Storm Tracking
New forecast layout! Learn more

10-Day Weather Forecast

Advertisements
Track Severe Weather on mobile